Time;durP1;ratioP1;P1;durP2;ratioP2;P2;SDS_P1;SDS_P2;PMS_P1;PMS_P2;Temp;Humidity;BMP_temperature;BMP_pressure;BME280_temperature;BME280_humidity;BME280_pressure;Samples;Min_cycle;Max_cycle;Signal;HPM_P1;HPM_P2
2022/10/26 00:00:47;;;;;;;7.15;4.40;;;11.10;99.90;;;;;;5015144;28;20067;-73
2022/10/26 00:03:14;;;;;;;7.43;4.00;;;11.00;99.90;;;;;;5004482;28;20046;-73
2022/10/26 00:05:40;;;;;;;6.63;3.88;;;11.00;99.90;;;;;;5019711;28;20132;-73
2022/10/26 00:08:06;;;;;;;5.43;4.18;;;10.90;99.90;;;;;;5031253;28;20613;-73
2022/10/26 00:10:36;;;;;;;5.63;4.10;;;10.80;99.90;;;;;;5011895;28;20049;-73
2022/10/26 00:13:04;;;;;;;6.30;4.13;;;10.80;99.90;;;;;;5027688;28;20045;-73
2022/10/26 00:15:30;;;;;;;6.38;3.90;;;10.90;99.90;;;;;;5016161;28;20449;-72
2022/10/26 00:17:55;;;;;;;6.22;4.10;;;10.60;99.90;;;;;;5029733;28;20049;-72
2022/10/26 00:20:21;;;;;;;6.85;4.57;;;10.60;99.90;;;;;;5030149;28;20148;-72
2022/10/26 00:22:47;;;;;;;7.53;4.45;;;10.60;99.90;;;;;;5028711;28;20053;-73
2022/10/26 00:25:12;;;;;;;6.40;4.45;;;10.50;99.90;;;;;;5030585;28;20045;-72
2022/10/26 00:27:38;;;;;;;6.45;4.22;;;10.50;99.90;;;;;;5025475;28;20049;-72
2022/10/26 00:30:05;;;;;;;6.65;4.22;;;10.40;99.90;;;;;;5023364;28;20348;-73
2022/10/26 00:32:32;;;;;;;8.27;4.32;;;10.40;99.90;;;;;;5012972;28;20076;-72
2022/10/26 00:34:58;;;;;;;7.72;4.30;;;10.30;99.90;;;;;;5030243;28;20046;-72
2022/10/26 00:37:24;;;;;;;6.10;4.35;;;10.20;99.90;;;;;;5030391;28;20577;-73
2022/10/26 00:39:50;;;;;;;6.20;3.90;;;10.20;99.90;;;;;;5025409;28;20426;-72
2022/10/26 00:42:19;;;;;;;6.50;3.97;;;10.20;99.90;;;;;;5009671;28;20060;-72
2022/10/26 00:44:44;;;;;;;7.88;4.78;;;10.30;99.90;;;;;;5030475;28;20153;-73
2022/10/26 00:47:14;;;;;;;6.25;4.10;;;10.10;99.90;;;;;;5031321;28;20135;-73
2022/10/26 00:49:41;;;;;;;5.93;4.32;;;10.10;99.90;;;;;;5031879;28;20116;-73
2022/10/26 00:52:08;;;;;;;5.47;4.20;;;10.00;99.90;;;;;;5032383;28;20057;-73
2022/10/26 00:54:34;;;;;;;6.65;4.38;;;10.00;99.90;;;;;;5030982;28;20045;-73
2022/10/26 00:57:00;;;;;;;9.68;4.40;;;10.00;99.90;;;;;;5030579;28;20461;-73
2022/10/26 00:59:25;;;;;;;5.43;3.80;;;10.10;99.90;;;;;;5030403;28;20053;-73
2022/10/26 01:01:52;;;;;;;6.00;4.43;;;10.00;99.90;;;;;;5030034;28;20045;-73
2022/10/26 01:04:18;;;;;;;7.32;4.72;;;10.00;99.90;;;;;;5030914;28;20049;-73
2022/10/26 01:06:45;;;;;;;6.70;4.15;;;9.90;99.90;;;;;;5015149;28;20045;-73
2022/10/26 01:09:11;;;;;;;7.35;4.53;;;9.90;99.90;;;;;;5030624;28;20045;-73
2022/10/26 01:11:37;;;;;;;6.28;4.20;;;9.90;99.90;;;;;;5023090;28;20125;-73
2022/10/26 01:14:07;;;;;;;7.55;4.25;;;9.80;99.90;;;;;;5023306;28;20145;-73
2022/10/26 01:16:42;;;;;;;6.18;4.10;;;9.90;99.90;;;;;;5020264;28;20585;-73
2022/10/26 01:19:22;;;;;;;5.63;4.20;;;9.80;99.90;;;;;;5032229;28;20053;-73
2022/10/26 01:22:03;;;;;;;5.70;4.43;;;9.80;99.90;;;;;;5034443;28;20050;-73
2022/10/26 01:24:47;;;;;;;5.70;4.22;;;9.80;99.90;;;;;;5034126;28;20046;-73
2022/10/26 01:27:37;;;;;;;6.30;4.43;;;9.70;99.90;;;;;;5034802;28;20049;-73
2022/10/26 01:30:26;;;;;;;7.22;3.75;;;9.80;99.90;;;;;;5034139;28;20148;-73
2022/10/26 01:33:28;;;;;;;5.80;4.20;;;9.70;99.90;;;;;;5029320;28;20460;-72
2022/10/26 01:36:28;;;;;;;5.43;3.90;;;9.80;99.90;;;;;;5033960;28;20072;-72
2022/10/26 01:39:02;;;;;;;7.32;4.15;;;9.70;99.90;;;;;;5034337;28;20053;-72
2022/10/26 01:41:30;;;;;;;6.85;4.05;;;9.70;99.90;;;;;;5033751;28;20052;-72
2022/10/26 01:44:01;;;;;;;5.10;3.65;;;9.70;99.90;;;;;;5033908;28;20110;-72
2022/10/26 01:46:32;;;;;;;5.55;3.80;;;9.70;99.90;;;;;;5033272;28;20085;-72
2022/10/26 01:49:04;;;;;;;6.20;3.90;;;9.70;99.90;;;;;;5033666;28;20049;-72
2022/10/26 01:51:31;;;;;;;5.80;3.53;;;9.70;99.90;;;;;;4994545;28;20530;-72
2022/10/26 01:53:57;;;;;;;4.85;3.20;;;9.60;99.90;;;;;;5021288;28;20054;-72
2022/10/26 01:56:30;;;;;;;4.28;2.63;;;9.60;99.90;;;;;;5033923;28;20064;-72
2022/10/26 01:59:37;;;;;;;4.15;3.03;;;9.60;99.90;;;;;;5033992;28;20053;-73
2022/10/26 02:02:22;;;;;;;3.55;2.80;;;9.50;99.90;;;;;;5001506;28;20061;-73
2022/10/26 02:05:00;;;;;;;5.68;3.83;;;9.40;99.90;;;;;;5033750;28;20398;-73
2022/10/26 02:07:41;;;;;;;6.35;3.30;;;9.40;99.90;;;;;;5033087;28;20129;-73
2022/10/26 02:10:34;;;;;;;5.65;3.38;;;9.40;99.90;;;;;;4999849;28;20053;-73
2022/10/26 02:13:28;;;;;;;5.65;3.30;;;9.30;99.90;;;;;;4997045;28;20135;-73
2022/10/26 02:16:00;;;;;;;4.70;3.30;;;9.30;99.90;;;;;;5014748;28;20422;-73
2022/10/26 02:18:47;;;;;;;5.45;3.47;;;9.30;99.90;;;;;;5033855;28;20060;-73
2022/10/26 02:21:20;;;;;;;5.13;3.25;;;9.20;99.90;;;;;;5015600;28;20037;-73
2022/10/26 02:23:48;;;;;;;7.00;4.35;;;9.30;99.90;;;;;;5015736;28;20045;-73
2022/10/26 02:26:17;;;;;;;5.15;3.85;;;9.20;99.90;;;;;;5015807;28;20054;-72
2022/10/26 02:28:50;;;;;;;5.43;3.92;;;9.20;99.90;;;;;;5015557;28;20059;-73
2022/10/26 02:31:18;;;;;;;6.85;3.92;;;9.30;99.90;;;;;;5026864;28;20130;-72
2022/10/26 02:33:48;;;;;;;6.45;4.75;;;9.30;99.90;;;;;;5027576;28;20533;-73
2022/10/26 02:36:23;;;;;;;7.78;4.93;;;9.30;99.90;;;;;;5008153;28;20088;-73
2022/10/26 02:38:51;;;;;;;8.05;5.32;;;9.30;99.90;;;;;;5015836;28;20089;-73
2022/10/26 02:41:18;;;;;;;8.10;4.90;;;9.30;99.90;;;;;;5032586;28;20486;-73
2022/10/26 02:43:58;;;;;;;8.23;5.40;;;9.30;99.90;;;;;;5032872;28;20052;-73
2022/10/26 02:46:26;;;;;;;8.40;5.20;;;9.30;99.90;;;;;;5032419;28;20498;-73
2022/10/26 02:48:52;;;;;;;8.73;5.30;;;9.40;99.90;;;;;;5027273;28;20657;-73
2022/10/26 02:51:42;;;;;;;7.22;5.53;;;9.40;99.90;;;;;;5028253;28;20072;-73
2022/10/26 02:54:33;;;;;;;8.45;5.28;;;9.30;99.90;;;;;;5015145;28;20549;-72
2022/10/26 02:57:00;;;;;;;8.27;6.05;;;9.30;99.90;;;;;;5032705;28;20099;-72
2022/10/26 02:59:31;;;;;;;9.63;5.90;;;9.30;99.90;;;;;;5014706;28;20059;-72
2022/10/26 03:01:57;;;;;;;7.70;5.70;;;9.40;99.90;;;;;;5018058;28;20508;-73
2022/10/26 03:04:33;;;;;;;8.95;6.00;;;9.40;99.90;;;;;;5012834;28;20129;-72
2022/10/26 03:07:00;;;;;;;8.80;6.60;;;9.40;99.90;;;;;;5026279;28;20464;-72
2022/10/26 03:09:25;;;;;;;9.35;6.35;;;9.50;99.90;;;;;;5014760;28;20045;-73
2022/10/26 03:11:52;;;;;;;8.68;5.97;;;9.50;99.90;;;;;;5031503;28;20049;-73
2022/10/26 03:14:17;;;;;;;8.93;5.97;;;9.60;99.90;;;;;;4996448;28;20056;-73
2022/10/26 03:16:43;;;;;;;8.43;5.95;;;9.90;99.90;;;;;;5009220;28;20053;-73
2022/10/26 03:19:09;;;;;;;9.48;6.20;;;10.10;99.90;;;;;;5026891;28;20055;-73
2022/10/26 03:21:34;;;;;;;9.70;5.75;;;9.60;99.90;;;;;;5031949;28;20042;-73
2022/10/26 03:24:00;;;;;;;8.77;6.15;;;9.50;99.90;;;;;;5031841;28;20056;-73
2022/10/26 03:26:26;;;;;;;8.93;6.22;;;9.50;99.90;;;;;;5027657;28;20051;-73
2022/10/26 03:28:51;;;;;;;10.15;6.00;;;9.50;99.90;;;;;;5032104;28;20048;-73
2022/10/26 03:31:17;;;;;;;7.97;6.13;;;9.50;99.90;;;;;;5008454;28;20147;-72
2022/10/26 03:33:43;;;;;;;8.90;6.43;;;9.50;99.90;;;;;;5008494;28;20041;-73
2022/10/26 03:36:08;;;;;;;10.85;6.22;;;9.50;99.90;;;;;;5021333;28;20081;-73
2022/10/26 03:38:34;;;;;;;8.18;6.00;;;9.50;99.90;;;;;;5006363;28;20050;-73
2022/10/26 03:41:00;;;;;;;9.13;6.40;;;9.60;99.90;;;;;;5018291;28;20133;-73
2022/10/26 03:43:26;;;;;;;9.98;6.22;;;9.60;99.90;;;;;;4998465;28;20081;-73
2022/10/26 03:45:52;;;;;;;11.48;7.00;;;9.60;99.90;;;;;;5031218;28;20042;-73
2022/10/26 03:48:17;;;;;;;8.93;6.30;;;9.50;99.90;;;;;;5031394;28;20057;-73
2022/10/26 03:50:43;;;;;;;8.88;5.90;;;9.50;99.90;;;;;;5031336;28;20041;-73
2022/10/26 03:53:09;;;;;;;9.35;5.90;;;9.50;99.90;;;;;;5031613;28;20571;-73
2022/10/26 03:55:34;;;;;;;8.40;6.07;;;9.50;99.90;;;;;;5031685;28;20056;-73
2022/10/26 03:58:00;;;;;;;10.05;6.43;;;9.50;99.90;;;;;;5031373;28;20091;-73
2022/10/26 04:00:26;;;;;;;9.93;5.95;;;9.50;99.90;;;;;;5017717;28;20041;-73
2022/10/26 04:02:56;;;;;;;10.73;6.15;;;9.50;99.90;;;;;;5022367;28;20055;-73
2022/10/26 04:05:23;;;;;;;12.35;6.53;;;9.50;99.90;;;;;;5031254;28;20081;-73
2022/10/26 04:08:01;;;;;;;8.52;6.03;;;9.50;99.90;;;;;;5031025;28;20057;-73
2022/10/26 04:10:28;;;;;;;7.18;5.35;;;9.50;99.90;;;;;;5031152;28;20049;-73
2022/10/26 04:12:54;;;;;;;9.05;5.63;;;9.50;99.90;;;;;;5031183;28;20056;-73
2022/10/26 04:15:21;;;;;;;9.57;5.80;;;9.50;99.90;;;;;;5029502;28;20374;-73
2022/10/26 04:17:47;;;;;;;9.27;6.20;;;9.40;99.90;;;;;;5027215;28;20064;-74
2022/10/26 04:20:13;;;;;;;11.70;5.65;;;9.40;99.90;;;;;;5001000;28;20048;-73
2022/10/26 04:22:38;;;;;;;8.30;5.93;;;9.40;99.90;;;;;;4992115;28;20038;-73
2022/10/26 04:25:05;;;;;;;9.25;5.97;;;9.40;99.90;;;;;;5025929;28;20045;-73
2022/10/26 04:27:31;;;;;;;9.82;6.00;;;9.40;99.90;;;;;;5030969;28;20100;-73
2022/10/26 04:29:56;;;;;;;10.68;6.10;;;9.50;99.90;;;;;;5031037;28;20502;-73
2022/10/26 04:32:22;;;;;;;8.00;5.80;;;9.50;99.90;;;;;;5027975;28;20552;-72
2022/10/26 04:34:48;;;;;;;8.07;5.80;;;9.50;99.90;;;;;;5022819;28;20052;-73
2022/10/26 04:37:14;;;;;;;10.20;6.28;;;9.50;99.90;;;;;;5004136;28;20056;-73
2022/10/26 04:39:39;;;;;;;9.07;5.93;;;9.50;99.90;;;;;;5007407;28;20049;-72
2022/10/26 04:42:05;;;;;;;8.23;5.70;;;9.50;99.90;;;;;;5022700;28;20072;-73
2022/10/26 04:44:31;;;;;;;8.35;5.63;;;9.60;99.90;;;;;;5030787;28;20049;-72
2022/10/26 04:46:57;;;;;;;8.93;5.78;;;9.60;99.90;;;;;;5027180;28;20513;-72
2022/10/26 04:49:23;;;;;;;8.77;6.00;;;9.60;99.90;;;;;;5013481;28;20049;-72
2022/10/26 04:51:48;;;;;;;9.77;5.55;;;9.60;99.90;;;;;;5013419;28;20474;-72
2022/10/26 04:54:14;;;;;;;8.93;5.72;;;9.70;99.90;;;;;;5032866;28;20053;-72
2022/10/26 04:56:40;;;;;;;7.70;5.05;;;9.70;99.90;;;;;;5034669;28;20049;-72
2022/10/26 04:59:05;;;;;;;7.32;5.28;;;9.80;99.90;;;;;;4981625;28;20065;-73
2022/10/26 05:01:31;;;;;;;8.52;5.32;;;9.80;99.90;;;;;;5027078;28;20044;-73
2022/10/26 05:03:57;;;;;;;7.97;4.88;;;9.90;99.90;;;;;;5034842;28;20037;-73
2022/10/26 05:06:23;;;;;;;8.02;5.28;;;9.90;99.90;;;;;;5034437;28;20088;-73
2022/10/26 05:08:48;;;;;;;7.78;5.10;;;9.90;99.90;;;;;;5035050;28;20530;-73
2022/10/26 05:11:14;;;;;;;7.05;5.07;;;10.30;99.90;;;;;;5012051;28;20045;-73
2022/10/26 05:13:40;;;;;;;7.80;4.80;;;10.00;99.90;;;;;;4981011;28;20133;-73
2022/10/26 05:16:06;;;;;;;7.07;4.90;;;10.10;99.90;;;;;;5022745;28;20128;-73
2022/10/26 05:18:32;;;;;;;7.38;5.32;;;10.10;99.90;;;;;;5002317;28;20051;-73
2022/10/26 05:20:58;;;;;;;8.27;5.68;;;10.10;99.90;;;;;;5034609;28;20107;-73
2022/10/26 05:23:23;;;;;;;8.95;5.20;;;10.10;99.90;;;;;;5034600;28;20073;-73
2022/10/26 05:25:49;;;;;;;7.75;5.40;;;10.10;99.90;;;;;;5020793;28;20049;-73
2022/10/26 05:28:16;;;;;;;7.15;4.82;;;10.10;99.90;;;;;;5034414;28;20050;-73
2022/10/26 05:30:43;;;;;;;8.45;5.47;;;10.10;99.90;;;;;;5033490;28;20152;-73
2022/10/26 05:33:10;;;;;;;10.43;4.93;;;10.10;99.90;;;;;;5020937;28;20140;-73
2022/10/26 05:35:37;;;;;;;7.80;5.28;;;10.10;99.90;;;;;;5016138;28;20055;-73
2022/10/26 05:38:13;;;;;;;7.65;5.45;;;10.10;99.90;;;;;;5034238;28;20103;-73
2022/10/26 05:40:45;;;;;;;;;;;10.10;99.90;;;;;;5016972;28;20049;-73
2022/10/26 05:43:10;;;;;;;8.75;6.43;;;10.10;99.90;;;;;;5021346;28;19925;-73
2022/10/26 05:45:36;;;;;;;9.77;5.63;;;10.10;99.90;;;;;;5034157;28;20368;-73
2022/10/26 05:48:02;;;;;;;10.13;5.22;;;10.00;99.90;;;;;;5023720;28;20402;-73
2022/10/26 05:50:27;;;;;;;8.88;4.88;;;10.00;99.90;;;;;;5033659;28;20045;-73
2022/10/26 05:52:54;;;;;;;10.30;5.45;;;10.00;99.90;;;;;;5033411;28;20108;-73
2022/10/26 05:55:20;;;;;;;8.35;4.95;;;10.00;99.90;;;;;;5005147;28;20076;-73
2022/10/26 05:57:46;;;;;;;8.77;5.15;;;10.00;99.90;;;;;;5022652;28;20045;-73
2022/10/26 06:00:17;;;;;;;9.02;5.15;;;10.00;99.90;;;;;;5033353;28;20037;-73
2022/10/26 06:03:07;;;;;;;7.53;5.03;;;10.00;99.90;;;;;;5018001;28;20060;-73
2022/10/26 06:05:53;;;;;;;9.13;5.32;;;10.10;99.90;;;;;;5015644;28;20061;-73
2022/10/26 06:08:20;;;;;;;7.05;4.93;;;10.00;99.90;;;;;;5033794;28;20045;-73
2022/10/26 06:10:46;;;;;;;6.40;4.38;;;10.30;99.90;;;;;;5033665;28;20460;-74
2022/10/26 06:13:12;;;;;;;8.43;4.63;;;10.10;99.90;;;;;;5002001;28;20073;-74
2022/10/26 06:16:17;;;;;;;7.40;4.35;;;10.10;99.90;;;;;;5029909;28;20447;-74
2022/10/26 06:19:12;;;;;;;6.28;4.22;;;10.10;99.90;;;;;;5033034;28;20046;-66
2022/10/26 06:22:02;;;;;;;7.05;4.60;;;10.20;99.90;;;;;;5027735;28;20054;-66
2022/10/26 06:25:05;;;;;;;9.80;4.47;;;10.20;99.90;;;;;;5032823;28;20456;-66
2022/10/26 06:27:47;;;;;;;6.90;4.88;;;10.20;99.90;;;;;;5033083;28;20043;-66
2022/10/26 06:30:12;;;;;;;7.60;4.38;;;10.20;99.90;;;;;;5031372;28;20071;-66
2022/10/26 06:32:42;;;;;;;8.65;4.25;;;10.20;99.90;;;;;;5028927;28;20437;-66
2022/10/26 06:35:34;;;;;;;6.90;4.13;;;10.20;99.90;;;;;;5012403;28;20049;-67
2022/10/26 06:38:06;;;;;;;5.68;4.25;;;10.20;99.90;;;;;;5007559;28;20077;-67
2022/10/26 06:40:35;;;;;;;9.07;4.90;;;10.30;99.90;;;;;;5012888;28;20057;-66
2022/10/26 06:43:02;;;;;;;5.80;4.20;;;10.30;99.90;;;;;;4999087;28;20037;-66
2022/10/26 06:45:28;;;;;;;6.53;4.03;;;10.30;99.90;;;;;;5031994;28;20088;-67
2022/10/26 06:47:59;;;;;;;6.35;4.20;;;10.30;99.90;;;;;;4996740;28;20057;-67
2022/10/26 06:50:28;;;;;;;6.13;4.13;;;10.30;99.90;;;;;;5026649;28;20107;-66
2022/10/26 06:53:04;;;;;;;7.40;3.80;;;10.30;99.90;;;;;;5019755;28;20450;-67
2022/10/26 06:55:35;;;;;;;;;;;10.40;99.90;;;;;;5021080;28;20092;-67
2022/10/26 06:58:01;;;;;;;6.55;4.00;;;10.30;99.90;;;;;;5032713;28;19928;-66
2022/10/26 07:00:27;;;;;;;7.05;3.97;;;10.30;99.90;;;;;;5008652;28;20037;-66
2022/10/26 07:02:53;;;;;;;7.15;3.90;;;10.40;99.90;;;;;;5032414;28;20379;-65
2022/10/26 07:05:18;;;;;;;4.90;3.30;;;10.40;99.90;;;;;;5032346;28;20088;-65
2022/10/26 07:07:46;;;;;;;8.32;3.83;;;10.40;99.90;;;;;;5005704;28;20398;-67
2022/10/26 07:10:13;;;;;;;10.80;4.28;;;10.40;99.90;;;;;;5031835;28;20088;-65
2022/10/26 07:12:39;;;;;;;5.68;3.70;;;10.40;99.90;;;;;;4979596;28;20463;-67
2022/10/26 07:15:07;;;;;;;8.43;3.75;;;10.40;99.90;;;;;;5012988;28;20391;-67
2022/10/26 07:17:47;;;;;;;7.82;3.55;;;10.40;99.90;;;;;;5025043;28;20068;-67
2022/10/26 07:20:13;;;;;;;5.03;3.92;;;10.50;99.90;;;;;;5024236;28;20298;-67
2022/10/26 07:22:39;;;;;;;5.80;3.75;;;10.40;99.90;;;;;;5032054;28;20107;-67
2022/10/26 07:25:06;;;;;;;5.60;3.70;;;10.50;99.90;;;;;;5026670;28;20077;-67
2022/10/26 07:27:32;;;;;;;5.93;3.47;;;10.50;99.90;;;;;;4999166;28;20072;-67
2022/10/26 07:29:58;;;;;;;7.95;3.70;;;10.50;99.90;;;;;;5014196;28;20041;-67
2022/10/26 07:32:24;;;;;;;4.68;3.47;;;10.60;99.90;;;;;;5006594;28;20049;-68
2022/10/26 07:34:49;;;;;;;5.13;3.75;;;10.60;99.90;;;;;;5011907;28;20069;-66
2022/10/26 07:37:15;;;;;;;6.70;4.00;;;10.60;99.90;;;;;;5020719;28;20041;-66
2022/10/26 07:39:41;;;;;;;6.03;4.05;;;10.60;99.90;;;;;;5031670;28;20053;-66
2022/10/26 07:42:06;;;;;;;6.35;3.47;;;10.70;99.90;;;;;;5013513;28;20045;-65
2022/10/26 07:44:32;;;;;;;6.47;3.72;;;10.70;99.90;;;;;;5020281;28;20081;-65
2022/10/26 07:46:58;;;;;;;6.80;3.47;;;10.70;99.90;;;;;;5026094;28;20133;-64
2022/10/26 07:49:24;;;;;;;8.25;3.35;;;10.80;99.90;;;;;;5030283;28;20405;-65
2022/10/26 07:51:50;;;;;;;7.93;4.07;;;10.90;99.90;;;;;;5013823;28;20177;-65
2022/10/26 07:54:15;;;;;;;6.63;3.47;;;11.10;99.90;;;;;;5027685;28;20119;-66
2022/10/26 07:56:41;;;;;;;6.35;3.47;;;11.20;99.90;;;;;;5015856;28;20048;-66
2022/10/26 07:59:06;;;;;;;6.38;3.45;;;11.30;99.90;;;;;;5014161;28;20128;-65
2022/10/26 08:01:32;;;;;;;5.10;3.60;;;11.40;99.90;;;;;;4998803;28;20091;-65
2022/10/26 08:03:58;;;;;;;5.55;3.50;;;11.40;99.90;;;;;;5031383;28;20441;-67
2022/10/26 08:06:23;;;;;;;5.38;3.53;;;11.50;99.90;;;;;;5030588;28;20124;-66
2022/10/26 08:08:50;;;;;;;6.82;3.35;;;11.60;99.90;;;;;;5015980;28;20085;-66
2022/10/26 08:11:16;;;;;;;5.90;3.20;;;11.80;99.90;;;;;;5020463;28;20418;-66
2022/10/26 08:13:42;;;;;;;5.55;3.00;;;11.90;99.90;;;;;;5027694;28;20045;-66
2022/10/26 08:16:09;;;;;;;5.28;2.95;;;12.00;99.90;;;;;;5027655;28;20497;-66
2022/10/26 08:18:34;;;;;;;5.85;3.20;;;12.20;99.90;;;;;;5023562;28;20413;-66
2022/10/26 08:21:02;;;;;;;6.25;2.60;;;12.20;99.90;;;;;;5028718;28;20045;-66
2022/10/26 08:23:28;;;;;;;4.95;2.95;;;12.30;99.90;;;;;;5030919;28;20049;-66
2022/10/26 08:26:00;;;;;;;4.30;2.50;;;12.30;99.90;;;;;;5030798;28;20095;-66
2022/10/26 08:28:27;;;;;;;3.58;2.40;;;12.30;99.90;;;;;;5030287;28;20071;-66
2022/10/26 08:30:53;;;;;;;4.88;2.72;;;12.30;99.90;;;;;;5029952;28;20049;-66
2022/10/26 08:33:19;;;;;;;5.30;2.75;;;12.30;99.90;;;;;;5028799;28;20531;-65
2022/10/26 08:35:45;;;;;;;3.97;2.47;;;12.40;99.90;;;;;;5030126;28;20053;-66
2022/10/26 08:38:11;;;;;;;5.57;2.58;;;12.60;99.90;;;;;;5013178;28;20056;-66
2022/10/26 08:40:40;;;;;;;3.75;2.67;;;12.80;99.90;;;;;;5026178;28;20037;-65
2022/10/26 08:43:41;;;;;;;2.97;2.10;;;13.00;99.90;;;;;;5030451;28;20124;-66
2022/10/26 08:46:15;;;;;;;3.15;2.22;;;13.20;99.90;;;;;;5021360;28;20049;-66
2022/10/26 08:48:54;;;;;;;4.05;2.20;;;13.50;99.90;;;;;;5018251;28;20050;-67
2022/10/26 08:51:34;;;;;;;3.70;2.35;;;13.70;99.90;;;;;;5022793;28;20334;-65
2022/10/26 08:54:33;;;;;;;3.85;1.95;;;13.90;99.90;;;;;;5026645;28;20045;-66
2022/10/26 08:57:03;;;;;;;5.63;2.25;;;13.90;99.90;;;;;;5010331;28;20052;-67
2022/10/26 08:59:52;;;;;;;5.13;2.05;;;13.90;99.90;;;;;;5030369;28;20045;-66
2022/10/26 09:02:17;;;;;;;4.78;1.75;;;13.90;99.90;;;;;;5021275;28;20458;-66
2022/10/26 09:04:44;;;;;;;2.75;1.92;;;13.80;99.90;;;;;;5022629;28;20038;-66
2022/10/26 09:07:28;;;;;;;6.15;2.00;;;13.70;99.90;;;;;;5028545;28;20106;-66
2022/10/26 09:09:56;;;;;;;3.78;2.13;;;13.70;99.90;;;;;;5020759;28;20051;-66
2022/10/26 09:12:46;;;;;;;6.28;2.00;;;13.90;99.90;;;;;;5029944;28;20049;-66
2022/10/26 09:15:24;;;;;;;4.72;2.17;;;14.10;99.90;;;;;;5030131;28;20047;-65
2022/10/26 09:18:04;;;;;;;3.53;2.20;;;14.30;99.90;;;;;;5018926;28;20060;-65
2022/10/26 09:20:33;;;;;;;3.22;1.85;;;14.50;99.90;;;;;;4983839;28;20120;-66
2022/10/26 09:23:20;;;;;;;2.97;1.90;;;14.60;99.90;;;;;;5030739;28;20046;-65
2022/10/26 09:25:53;;;;;;;4.10;2.10;;;14.70;99.90;;;;;;5025966;28;20081;-66
2022/10/26 09:28:19;;;;;;;3.05;2.08;;;14.90;99.90;;;;;;5030708;28;20120;-66
2022/10/26 09:30:46;;;;;;;4.28;2.00;;;14.90;99.90;;;;;;5028019;28;20081;-66
2022/10/26 09:33:18;;;;;;;2.63;1.80;;;15.10;99.90;;;;;;5015755;28;20140;-66
2022/10/26 09:35:52;;;;;;;3.75;1.98;;;15.20;99.90;;;;;;5004061;28;20486;-65
2022/10/26 09:38:40;;;;;;;2.88;1.98;;;15.30;99.90;;;;;;5010642;28;20061;-66
2022/10/26 09:41:50;;;;;;;5.15;2.05;;;15.50;99.90;;;;;;5018508;28;20041;-66
2022/10/26 09:44:39;;;;;;;5.63;1.90;;;15.80;99.90;;;;;;4968217;28;20057;-66
2022/10/26 09:47:29;;;;;;;3.83;1.95;;;16.50;99.90;;;;;;5030701;28;20057;-65
2022/10/26 09:50:01;;;;;;;3.60;1.85;;;16.90;99.90;;;;;;5021188;28;20045;-65
2022/10/26 09:52:26;;;;;;;2.75;1.80;;;17.30;99.90;;;;;;5028660;28;20053;-66
2022/10/26 09:54:52;;;;;;;3.45;1.80;;;17.40;99.90;;;;;;5020296;28;20056;-66
2022/10/26 09:57:19;;;;;;;3.53;1.70;;;17.30;99.90;;;;;;5029931;28;20037;-65
2022/10/26 09:59:51;;;;;;;2.90;1.60;;;17.30;99.90;;;;;;5016295;28;20361;-65
2022/10/26 10:02:33;;;;;;;3.55;1.70;;;17.50;99.90;;;;;;5025512;28;20128;-65
2022/10/26 10:04:59;;;;;;;4.97;2.17;;;17.30;99.90;;;;;;5032599;28;20136;-65
2022/10/26 10:07:25;;;;;;;5.03;1.77;;;17.00;99.90;;;;;;5032826;28;20034;-66
2022/10/26 10:10:18;;;;;;;3.65;1.83;;;16.70;99.90;;;;;;4989681;28;20045;-67
2022/10/26 10:12:46;;;;;;;5.85;1.92;;;16.50;99.90;;;;;;5025241;28;20103;-66
2022/10/26 10:15:23;;;;;;;4.07;1.77;;;16.30;99.90;;;;;;5029879;28;20137;-65
2022/10/26 10:17:56;;;;;;;3.85;1.90;;;16.20;99.90;;;;;;5029993;28;20042;-66
2022/10/26 10:20:30;;;;;;;4.25;1.83;;;16.20;99.90;;;;;;5033205;28;20049;-65
2022/10/26 10:22:58;;;;;;;5.45;1.80;;;16.20;99.90;;;;;;5030612;28;20045;-65
2022/10/26 10:25:35;;;;;;;3.70;1.80;;;16.20;99.90;;;;;;5026717;28;20129;-66
2022/10/26 10:28:02;;;;;;;3.13;1.77;;;16.20;99.90;;;;;;5014993;28;20487;-65
2022/10/26 10:30:32;;;;;;;3.90;1.60;;;16.10;99.90;;;;;;5033014;28;20371;-65
2022/10/26 10:33:07;;;;;;;2.63;1.58;;;16.20;99.90;;;;;;5022498;28;20054;-65
2022/10/26 10:35:33;;;;;;;4.13;1.80;;;16.20;99.90;;;;;;5032870;28;20049;-65
2022/10/26 10:37:59;;;;;;;4.25;2.05;;;16.20;99.90;;;;;;5027012;28;20045;-65
2022/10/26 10:40:29;;;;;;;2.88;1.80;;;16.30;99.90;;;;;;5026730;28;20046;-65
2022/10/26 10:43:05;;;;;;;3.95;1.70;;;16.50;99.90;;;;;;5023791;28;20037;-65
2022/10/26 10:45:31;;;;;;;2.53;1.70;;;16.80;99.90;;;;;;5032158;28;20061;-65
2022/10/26 10:48:11;;;;;;;4.97;2.13;;;16.90;99.90;;;;;;5031804;28;20053;-65
2022/10/26 10:50:38;;;;;;;3.42;2.20;;;16.90;99.90;;;;;;5032299;28;20049;-65
2022/10/26 10:53:18;;;;;;;3.70;1.80;;;16.80;99.90;;;;;;4997617;28;20642;-65
2022/10/26 10:56:11;;;;;;;4.13;1.92;;;16.80;99.90;;;;;;5012286;28;20492;-65
2022/10/26 10:58:43;;;;;;;3.38;1.90;;;16.80;99.90;;;;;;5027175;28;20203;-65
2022/10/26 11:01:21;;;;;;;3.25;1.83;;;17.00;99.90;;;;;;5030974;28;20512;-65
2022/10/26 11:04:22;;;;;;;4.25;1.92;;;17.10;99.90;;;;;;5032271;28;20053;-65
2022/10/26 11:06:49;;;;;;;4.35;1.58;;;17.20;99.90;;;;;;5002777;28;20065;-65
2022/10/26 11:09:19;;;;;;;5.07;1.88;;;17.30;99.90;;;;;;5012247;28;20068;-67
2022/10/26 11:11:56;;;;;;;4.07;1.80;;;17.30;99.90;;;;;;5029368;28;20049;-67
2022/10/26 11:14:34;;;;;;;3.10;1.65;;;17.40;99.90;;;;;;5025179;28;20038;-67
2022/10/26 11:17:30;;;;;;;3.72;1.88;;;17.40;99.90;;;;;;5031344;28;20057;-66
2022/10/26 11:20:04;;;;;;;2.30;1.67;;;17.60;99.90;;;;;;5031502;28;20049;-65
2022/10/26 11:22:38;;;;;;;3.17;1.60;;;17.60;99.90;;;;;;5031555;28;20100;-66
2022/10/26 11:25:29;;;;;;;5.35;1.75;;;17.60;99.90;;;;;;5031706;28;20494;-66
2022/10/26 11:28:09;;;;;;;3.45;1.40;;;17.60;99.90;;;;;;5010184;28;20422;-66
2022/10/26 11:30:38;;;;;;;3.05;1.70;;;17.70;99.90;;;;;;5030534;28;20473;-66
2022/10/26 11:33:24;;;;;;;3.50;1.70;;;17.70;99.90;;;;;;5031379;28;20053;-66
2022/10/26 11:36:03;;;;;;;3.93;1.73;;;17.80;99.90;;;;;;5031766;28;20421;-66
2022/10/26 11:38:37;;;;;;;4.45;2.08;;;17.80;99.90;;;;;;5031183;28;20045;-66
2022/10/26 11:41:16;;;;;;;2.65;1.65;;;17.90;99.90;;;;;;5023500;28;20045;-66
2022/10/26 11:43:48;;;;;;;5.32;2.10;;;17.90;99.90;;;;;;5005203;28;20072;-66
2022/10/26 11:46:27;;;;;;;3.45;1.77;;;17.90;99.90;;;;;;5002440;28;20056;-66
2022/10/26 11:49:31;;;;;;;3.45;1.98;;;17.90;99.90;;;;;;5014469;28;20076;-66
2022/10/26 11:52:23;;;;;;;3.55;1.65;;;17.90;99.90;;;;;;5013912;28;20545;-67
2022/10/26 11:54:52;;;;;;;5.00;1.90;;;17.90;99.90;;;;;;5031236;28;20520;-66
2022/10/26 11:57:19;;;;;;;5.00;2.20;;;17.90;99.90;;;;;;5013730;28;20163;-66
2022/10/26 12:00:05;;;;;;;2.63;1.73;;;17.90;99.90;;;;;;5009828;28;20100;-65
2022/10/26 12:02:37;;;;;;;4.70;2.03;;;17.90;99.90;;;;;;5030253;28;20460;-66
2022/10/26 12:05:07;;;;;;;4.47;2.20;;;17.80;99.90;;;;;;5020496;28;20049;-65
2022/10/26 12:07:37;;;;;;;3.40;2.05;;;17.90;99.90;;;;;;5030211;28;20514;-66
2022/10/26 12:10:09;;;;;;;3.10;1.90;;;17.90;99.90;;;;;;5027884;28;20096;-65
2022/10/26 12:12:41;;;;;;;3.35;2.20;;;18.00;99.90;;;;;;5031089;28;20041;-66
2022/10/26 12:15:33;;;;;;;3.17;1.90;;;18.00;99.90;;;;;;5028353;28;20045;-66
2022/10/26 12:18:10;;;;;;;2.58;2.13;;;18.10;99.90;;;;;;5017934;28;20502;-66
2022/10/26 12:20:38;;;;;;;2.95;2.17;;;18.10;99.90;;;;;;5009246;28;20136;-65
2022/10/26 12:23:06;;;;;;;3.17;1.95;;;18.10;99.90;;;;;;5017725;28;20042;-65
2022/10/26 12:25:32;;;;;;;4.90;1.92;;;18.10;99.90;;;;;;5016634;28;20049;-66
2022/10/26 12:27:59;;;;;;;4.00;1.92;;;18.10;99.90;;;;;;4996798;28;20043;-65
2022/10/26 12:30:29;;;;;;;6.07;2.45;;;18.10;99.90;;;;;;5025010;28;20049;-65
2022/10/26 12:32:57;;;;;;;4.53;2.00;;;18.10;99.90;;;;;;5027309;28;20068;-65
2022/10/26 12:35:35;;;;;;;3.70;2.00;;;18.10;99.90;;;;;;5030665;28;20056;-65
2022/10/26 12:38:20;;;;;;;4.70;1.92;;;18.00;99.90;;;;;;5029051;28;20516;-65
2022/10/26 12:40:45;;;;;;;3.72;1.67;;;18.00;99.90;;;;;;5030162;28;20045;-66
2022/10/26 12:43:14;;;;;;;3.58;1.95;;;18.00;99.90;;;;;;5012631;28;20060;-75
2022/10/26 12:46:12;;;;;;;4.60;1.90;;;18.00;99.90;;;;;;5029924;28;20053;-76
2022/10/26 12:48:44;;;;;;;3.65;2.05;;;18.00;99.90;;;;;;5026827;28;20049;-75
2022/10/26 12:51:23;;;;;;;3.17;2.05;;;18.10;99.90;;;;;;5030043;28;20076;-74
2022/10/26 12:54:29;;;;;;;4.22;2.30;;;18.20;99.90;;;;;;5030666;28;20045;-74
2022/10/26 12:57:15;;;;;;;5.68;2.38;;;18.30;99.90;;;;;;5030507;28;20045;-74
2022/10/26 12:59:56;;;;;;;5.78;2.20;;;18.30;99.90;;;;;;5029794;28;20108;-75
2022/10/26 13:02:22;;;;;;;3.38;2.13;;;18.30;99.90;;;;;;5030391;28;20049;-73
2022/10/26 13:04:53;;;;;;;3.45;2.22;;;18.40;99.90;;;;;;5001266;28;20104;-72
2022/10/26 13:07:32;;;;;;;3.25;1.90;;;18.40;99.90;;;;;;5013092;28;20454;-73
2022/10/26 13:10:03;;;;;;;4.72;2.30;;;18.40;99.90;;;;;;5011120;28;20046;-72
2022/10/26 13:12:37;;;;;;;3.60;2.17;;;18.40;99.90;;;;;;4997604;28;20073;-71
2022/10/26 13:15:16;;;;;;;3.60;2.10;;;18.30;99.90;;;;;;5029299;28;20045;-72